Mont-Tremblant, Canada
Current Conditions -  °F | °C
As of 8:00 PM on Saturday 20 Dec 2014 (Local Time) from CYMX Reporting Station
Haze Haze  
Wind Chill:   Ceiling: 200
Heat Index: 12°   Visibility: 0.75mi
Dew Point:   Wind: 5mph
Humidity: 85%   Direction: 60°ENE
Pressure: 30.36"   Gusts: NA
Location:  46.12°N, 74.6°W
Report Text: CYMX 210100Z 06004KT 020V080 3/4SM R06/5500VP6000FT/U BR VV002 M11/M13 A3036 RMK FG8 TWR VIS 1/8 SLP288
Loading
Personal Weather Stations






























Interactive Weather Map New forecast layout! Learn more

10-Day Weather Forecast

Advertisements
Track Severe Weather on mobile